createdAt,value
2024-01-31T00:00:23.242Z,1.40
2024-01-31T00:02:49.526Z,1.83
2024-01-31T00:05:30.994Z,1.65
2024-01-31T00:07:57.410Z,1.45
2024-01-31T00:10:23.818Z,1.27
2024-01-31T00:12:50.141Z,1.55
2024-01-31T00:15:17.752Z,1.98
2024-01-31T00:17:44.197Z,1.58
2024-01-31T00:20:11.663Z,1.88
2024-01-31T00:22:38.155Z,1.70
2024-01-31T00:25:04.812Z,1.40
2024-01-31T00:27:31.247Z,1.25
2024-01-31T00:29:57.569Z,1.63
2024-01-31T00:32:25.028Z,1.45
2024-01-31T00:34:51.390Z,1.40
2024-01-31T00:37:17.835Z,1.98
2024-01-31T00:39:47.552Z,1.73
2024-01-31T00:42:13.886Z,1.58
2024-01-31T00:44:40.204Z,1.63
2024-01-31T00:47:06.575Z,1.30
2024-01-31T00:49:33.153Z,1.00
2024-01-31T00:51:59.526Z,1.38
2024-01-31T00:54:26.064Z,1.40
2024-01-31T00:56:52.360Z,1.95
2024-01-31T00:59:19.553Z,1.35
2024-01-31T01:01:45.976Z,2.13
2024-01-31T01:04:12.599Z,1.30
2024-01-31T01:06:42.187Z,1.50
2024-01-31T01:09:08.871Z,1.48
2024-01-31T01:11:35.200Z,1.30
2024-01-31T01:14:01.556Z,1.70
2024-01-31T01:16:27.939Z,1.65
2024-01-31T01:18:54.358Z,1.70
2024-01-31T01:21:20.712Z,2.22
2024-01-31T01:23:47.039Z,1.85
2024-01-31T01:26:13.628Z,1.45
2024-01-31T01:28:40.130Z,1.70
2024-01-31T01:31:07.013Z,1.58
2024-01-31T01:33:33.477Z,1.52
2024-01-31T01:35:59.902Z,1.80
2024-01-31T01:38:26.260Z,1.70
2024-01-31T01:40:52.648Z,1.60
2024-01-31T01:43:19.631Z,1.60
2024-01-31T01:45:46.111Z,2.10
2024-01-31T01:48:13.117Z,1.52
2024-01-31T01:50:39.592Z,1.95
2024-01-31T01:53:05.989Z,1.52
2024-01-31T01:55:32.296Z,1.35
2024-01-31T01:57:58.666Z,1.90
2024-01-31T02:00:26.851Z,2.03
2024-01-31T02:02:53.472Z,2.20
2024-01-31T02:05:20.235Z,2.17
2024-01-31T02:07:46.764Z,1.30
2024-01-31T02:10:13.102Z,2.15
2024-01-31T02:12:40.077Z,1.48
2024-01-31T02:15:06.819Z,2.10
2024-01-31T02:17:34.613Z,1.80
2024-01-31T02:20:01.176Z,1.67
2024-01-31T02:22:27.628Z,2.10
2024-01-31T02:24:54.086Z,2.35
2024-01-31T02:27:21.309Z,1.80
2024-01-31T02:29:47.654Z,1.73
2024-01-31T02:32:14.083Z,1.73
2024-01-31T02:34:40.684Z,1.20
2024-01-31T02:37:07.248Z,1.80
2024-01-31T02:39:34.688Z,1.25
2024-01-31T02:42:01.221Z,1.65
2024-01-31T02:44:27.537Z,2.08
2024-01-31T02:46:53.904Z,1.67
2024-01-31T02:49:20.505Z,1.73
2024-01-31T02:51:47.140Z,1.60
2024-01-31T02:54:13.455Z,1.70
2024-01-31T02:56:39.969Z,2.03
2024-01-31T02:59:06.256Z,1.65
2024-01-31T03:01:33.240Z,1.85
2024-01-31T03:03:59.715Z,1.92
2024-01-31T03:06:26.180Z,1.30
2024-01-31T03:08:52.548Z,1.45
2024-01-31T03:11:18.838Z,1.92
2024-01-31T03:13:45.343Z,1.60
2024-01-31T03:16:11.789Z,1.67
2024-01-31T03:18:38.259Z,2.22
2024-01-31T03:21:04.852Z,1.23
2024-01-31T03:23:31.222Z,2.53
2024-01-31T03:25:57.914Z,2.50
2024-01-31T03:28:25.189Z,1.80
2024-01-31T03:30:51.554Z,2.17
2024-01-31T03:33:18.079Z,1.58
2024-01-31T03:35:44.408Z,1.85
2024-01-31T03:38:10.749Z,2.45
2024-01-31T03:40:38.034Z,1.90
2024-01-31T03:43:04.538Z,2.35
2024-01-31T03:45:30.862Z,2.28
2024-01-31T03:47:57.184Z,1.83
2024-01-31T03:50:23.574Z,1.95
2024-01-31T03:52:49.935Z,2.30
2024-01-31T03:55:16.360Z,2.20
2024-01-31T03:57:42.734Z,2.00
2024-01-31T04:00:10.955Z,2.10
2024-01-31T04:02:38.238Z,2.10
2024-01-31T04:05:04.970Z,1.80
2024-01-31T04:07:31.670Z,2.10
2024-01-31T04:09:58.047Z,1.90
2024-01-31T04:12:24.418Z,2.20
2024-01-31T04:14:50.854Z,2.85
2024-01-31T04:17:17.223Z,2.15
2024-01-31T04:19:48.758Z,2.70
2024-01-31T04:22:15.432Z,2.40
2024-01-31T04:24:41.758Z,1.85
2024-01-31T04:27:08.103Z,1.83
2024-01-31T04:29:34.475Z,2.47
2024-01-31T04:32:01.215Z,2.25
2024-01-31T04:34:27.834Z,2.70
2024-01-31T04:36:54.271Z,2.20
2024-01-31T04:39:20.672Z,2.15
2024-01-31T04:41:48.347Z,2.17
2024-01-31T04:44:14.806Z,2.45
2024-01-31T04:46:41.237Z,1.95
2024-01-31T04:49:07.776Z,2.05
2024-01-31T04:51:34.178Z,1.83
2024-01-31T04:54:00.498Z,1.70
2024-01-31T04:56:26.839Z,1.63
2024-01-31T04:58:53.167Z,2.58
2024-01-31T05:01:19.610Z,2.05
2024-01-31T05:03:46.035Z,1.95
2024-01-31T05:06:12.524Z,2.47
2024-01-31T05:08:38.948Z,5.82
2024-01-31T05:11:05.316Z,3.25
2024-01-31T05:13:31.659Z,2.47
2024-01-31T05:15:58.199Z,2.15
2024-01-31T05:18:24.658Z,2.42
2024-01-31T05:20:51.011Z,2.10
2024-01-31T05:23:17.376Z,2.13
2024-01-31T05:25:43.809Z,2.90
2024-01-31T05:28:10.335Z,2.35
2024-01-31T05:30:36.912Z,2.22
2024-01-31T05:33:03.943Z,1.90
2024-01-31T05:35:30.499Z,1.98
2024-01-31T05:37:56.904Z,2.47
2024-01-31T05:40:23.268Z,2.25
2024-01-31T05:42:52.292Z,2.00
2024-01-31T05:45:19.841Z,1.83
2024-01-31T05:47:46.235Z,2.22
2024-01-31T05:50:12.955Z,2.42
2024-01-31T05:52:39.342Z,2.03
2024-01-31T05:55:06.041Z,2.13
2024-01-31T05:57:33.126Z,2.38
2024-01-31T05:59:59.482Z,2.42
2024-01-31T06:02:25.850Z,2.47
2024-01-31T06:04:52.201Z,2.08
2024-01-31T06:07:19.245Z,2.30
2024-01-31T06:09:45.643Z,2.60
2024-01-31T06:12:11.978Z,2.65
2024-01-31T06:14:38.355Z,2.10
2024-01-31T06:17:04.980Z,2.63
2024-01-31T06:19:31.476Z,2.45
2024-01-31T06:21:57.908Z,2.17
2024-01-31T06:24:24.266Z,2.72
2024-01-31T06:26:51.084Z,3.17
2024-01-31T06:29:19.569Z,2.70
2024-01-31T06:31:49.664Z,2.70
2024-01-31T06:34:16.482Z,3.38
2024-01-31T06:36:43.167Z,3.60
2024-01-31T06:39:10.647Z,3.80
2024-01-31T06:41:38.011Z,4.32
2024-01-31T06:44:04.664Z,4.85
2024-01-31T06:46:31.247Z,4.53
2024-01-31T06:48:58.390Z,6.97
2024-01-31T06:51:24.959Z,4.97
2024-01-31T06:53:51.315Z,5.07
2024-01-31T06:56:18.338Z,5.78
2024-01-31T06:58:46.187Z,7.85
2024-01-31T07:01:16.515Z,7.68
2024-01-31T07:03:43.174Z,7.63
2024-01-31T07:06:10.792Z,6.18
2024-01-31T07:08:37.221Z,9.25
2024-01-31T07:11:05.950Z,12.82
2024-01-31T07:13:32.939Z,13.50
2024-01-31T07:15:59.562Z,9.85
2024-01-31T07:18:26.084Z,10.57
2024-01-31T07:20:52.498Z,12.80
2024-01-31T07:23:18.864Z,9.80
2024-01-31T07:25:45.357Z,7.53
2024-01-31T07:28:11.749Z,7.45
2024-01-31T07:30:38.073Z,7.15
2024-01-31T07:33:04.482Z,7.72
2024-01-31T07:35:30.826Z,7.38
2024-01-31T07:37:57.178Z,6.93
2024-01-31T07:40:23.866Z,5.93
2024-01-31T07:42:50.169Z,5.03
2024-01-31T07:45:16.519Z,4.95
2024-01-31T07:47:42.883Z,4.78
2024-01-31T07:50:09.753Z,4.88
2024-01-31T07:52:36.244Z,4.90
2024-01-31T07:55:02.793Z,4.35
2024-01-31T07:57:29.207Z,4.65
2024-01-31T07:59:55.572Z,5.72
2024-01-31T08:02:21.917Z,5.15
2024-01-31T08:04:48.850Z,5.57
2024-01-31T08:07:15.259Z,5.15
2024-01-31T08:09:41.754Z,6.20
2024-01-31T08:12:09.005Z,5.97
2024-01-31T08:14:35.533Z,5.95
2024-01-31T08:17:01.873Z,6.82
2024-01-31T08:19:28.296Z,7.18
2024-01-31T08:21:54.668Z,6.95
2024-01-31T08:24:21.191Z,6.35
2024-01-31T08:26:47.538Z,6.57
2024-01-31T08:29:20.515Z,7.40
2024-01-31T08:31:53.129Z,7.13
2024-01-31T08:34:19.806Z,7.53
2024-01-31T08:36:46.388Z,7.45
2024-01-31T08:39:13.211Z,8.25
2024-01-31T08:41:39.594Z,7.72
2024-01-31T08:44:06.044Z,7.55
2024-01-31T08:46:34.471Z,7.57
2024-01-31T08:49:06.054Z,7.60
2024-01-31T08:51:33.979Z,7.15
2024-01-31T08:54:00.277Z,6.75
2024-01-31T08:56:26.739Z,6.90
2024-01-31T08:58:53.240Z,6.97
2024-01-31T09:01:19.600Z,6.80
2024-01-31T09:03:46.085Z,6.72
2024-01-31T09:06:12.562Z,5.72
2024-01-31T09:08:38.947Z,5.88
2024-01-31T09:11:05.316Z,6.40
2024-01-31T09:13:31.751Z,5.60
2024-01-31T09:15:58.359Z,6.07
2024-01-31T09:18:24.746Z,6.05
2024-01-31T09:20:51.649Z,5.88
2024-01-31T09:23:18.022Z,5.30
2024-01-31T09:25:44.553Z,5.80
2024-01-31T09:28:10.958Z,4.90
2024-01-31T09:30:37.284Z,4.53
2024-01-31T09:33:03.903Z,4.72
2024-01-31T09:35:31.074Z,4.82
2024-01-31T09:37:57.512Z,5.40
2024-01-31T09:40:24.745Z,5.25
2024-01-31T09:42:52.645Z,4.97
2024-01-31T09:45:19.072Z,4.63
2024-01-31T09:47:46.903Z,4.55
2024-01-31T09:50:13.617Z,4.78
2024-01-31T09:52:41.113Z,5.00
2024-01-31T09:55:11.326Z,4.68
2024-01-31T09:57:40.424Z,5.50
2024-01-31T10:00:07.714Z,4.88
2024-01-31T10:02:35.158Z,5.00
2024-01-31T10:05:01.676Z,4.97
2024-01-31T10:07:34.317Z,4.90
2024-01-31T10:10:01.053Z,5.22
2024-01-31T10:12:27.530Z,4.70
2024-01-31T10:14:54.081Z,5.53
2024-01-31T10:17:21.295Z,5.72
2024-01-31T10:19:48.072Z,5.55
2024-01-31T10:22:14.686Z,5.30
2024-01-31T10:24:41.417Z,5.93
2024-01-31T10:27:08.948Z,5.90
2024-01-31T10:29:36.873Z,6.03
2024-01-31T10:32:04.373Z,6.40
2024-01-31T10:34:39.525Z,6.65
2024-01-31T10:37:46.781Z,7.78
2024-01-31T10:40:02.117Z,8.35
2024-01-31T10:42:28.642Z,8.95
2024-01-31T10:44:55.506Z,8.70
2024-01-31T10:47:22.163Z,9.30
2024-01-31T10:49:48.636Z,9.27
2024-01-31T10:52:15.987Z,9.57
2024-01-31T10:54:45.715Z,10.70
2024-01-31T10:57:12.488Z,11.00
2024-01-31T10:59:38.952Z,12.13
2024-01-31T11:02:06.706Z,10.70
2024-01-31T11:04:38.599Z,11.50
2024-01-31T11:07:05.707Z,11.10
2024-01-31T11:09:32.402Z,11.07
2024-01-31T11:12:01.828Z,12.45
2024-01-31T11:14:31.767Z,12.57
2024-01-31T11:17:07.869Z,11.43
2024-01-31T11:20:00.204Z,12.07
2024-01-31T11:22:27.635Z,12.15
2024-01-31T11:24:54.678Z,13.55
2024-01-31T11:27:21.141Z,12.98
2024-01-31T11:29:51.771Z,12.65
2024-01-31T11:32:25.240Z,13.27
2024-01-31T11:34:58.905Z,14.10
2024-01-31T11:37:25.268Z,14.77
2024-01-31T11:39:51.812Z,14.02
2024-01-31T11:42:18.457Z,13.68
2024-01-31T11:44:44.904Z,14.35
2024-01-31T11:47:11.317Z,15.23
2024-01-31T11:49:37.834Z,14.43
2024-01-31T11:52:05.031Z,15.48
2024-01-31T11:54:31.953Z,15.43
2024-01-31T11:56:58.341Z,15.23
2024-01-31T11:59:25.071Z,15.60
2024-01-31T12:01:51.558Z,15.07
2024-01-31T12:04:17.949Z,15.10
2024-01-31T12:06:44.480Z,15.25
2024-01-31T12:09:10.866Z,14.60
2024-01-31T12:11:37.364Z,14.68
2024-01-31T12:14:03.824Z,14.13
2024-01-31T12:16:39.869Z,13.32
2024-01-31T12:19:06.453Z,14.25
2024-01-31T12:21:43.367Z,14.07
2024-01-31T12:24:11.661Z,11.88
2024-01-31T12:26:38.589Z,12.57
2024-01-31T12:29:04.992Z,11.93
2024-01-31T12:31:31.364Z,12.63
2024-01-31T12:33:57.787Z,11.20
2024-01-31T12:36:24.505Z,10.75
2024-01-31T12:38:50.943Z,10.85
2024-01-31T12:41:18.763Z,11.80
2024-01-31T12:43:45.878Z,10.75
2024-01-31T12:46:12.677Z,10.88
2024-01-31T12:48:39.566Z,10.55
2024-01-31T12:51:06.068Z,10.55
2024-01-31T12:53:32.756Z,10.77
2024-01-31T12:55:59.159Z,10.35
2024-01-31T12:58:25.515Z,10.48
2024-01-31T13:00:52.017Z,10.05
2024-01-31T13:03:18.480Z,10.20
2024-01-31T13:05:45.603Z,9.82
2024-01-31T13:08:12.282Z,9.38
2024-01-31T13:10:38.995Z,10.10
2024-01-31T13:13:05.361Z,8.50
2024-01-31T13:15:31.887Z,8.73
2024-01-31T13:17:58.582Z,8.38
2024-01-31T13:20:25.159Z,7.38
2024-01-31T13:22:51.802Z,7.70
2024-01-31T13:25:18.171Z,6.95
2024-01-31T13:27:44.512Z,4.88
2024-01-31T13:30:13.229Z,5.03
2024-01-31T13:32:39.890Z,5.50
2024-01-31T13:35:06.590Z,5.18
2024-01-31T13:37:33.074Z,5.15
2024-01-31T13:39:59.444Z,4.93
2024-01-31T13:42:25.785Z,4.63
2024-01-31T13:44:52.204Z,4.85
2024-01-31T13:47:18.555Z,5.00
2024-01-31T13:49:45.062Z,4.82
2024-01-31T13:52:11.481Z,5.20
2024-01-31T13:54:37.859Z,4.80
2024-01-31T13:57:04.403Z,3.80
2024-01-31T13:59:30.788Z,4.30
2024-01-31T14:01:57.189Z,4.50
2024-01-31T14:04:27.385Z,4.40
2024-01-31T14:06:54.146Z,4.78
2024-01-31T14:09:22.434Z,4.50
2024-01-31T14:11:49.087Z,3.90
2024-01-31T14:14:16.031Z,3.85
2024-01-31T14:16:42.344Z,4.18
2024-01-31T14:19:09.000Z,3.78
2024-01-31T14:21:35.320Z,3.70
2024-01-31T14:24:09.330Z,3.85
2024-01-31T14:26:41.966Z,3.83
2024-01-31T14:29:08.326Z,3.45
2024-01-31T14:31:35.432Z,3.55
2024-01-31T14:34:02.021Z,3.83
2024-01-31T14:36:29.503Z,3.78
2024-01-31T14:38:55.914Z,3.28
2024-01-31T14:41:22.243Z,3.30
2024-01-31T14:43:48.589Z,3.83
2024-01-31T14:46:15.219Z,4.38
2024-01-31T14:48:41.758Z,4.03
2024-01-31T14:51:09.569Z,4.18
2024-01-31T14:53:36.182Z,3.17
2024-01-31T14:56:02.863Z,3.25
2024-01-31T14:58:29.381Z,3.30
2024-01-31T15:00:55.739Z,4.28
2024-01-31T15:03:22.270Z,2.95
2024-01-31T15:05:48.780Z,4.47
2024-01-31T15:08:15.342Z,3.50
2024-01-31T15:10:41.686Z,3.17
2024-01-31T15:13:08.089Z,3.30
2024-01-31T15:15:35.403Z,3.45
2024-01-31T15:18:02.025Z,2.75
2024-01-31T15:20:30.766Z,2.83
2024-01-31T15:22:57.565Z,3.38
2024-01-31T15:25:23.960Z,2.80
2024-01-31T15:27:50.313Z,2.58
2024-01-31T15:30:18.140Z,2.53
2024-01-31T15:32:45.066Z,2.80
2024-01-31T15:35:12.781Z,3.13
2024-01-31T15:37:39.275Z,3.47
2024-01-31T15:40:06.177Z,5.28
2024-01-31T15:42:32.515Z,3.67
2024-01-31T15:44:58.979Z,4.15
2024-01-31T15:47:25.418Z,3.17
2024-01-31T15:49:52.274Z,3.00
2024-01-31T15:52:18.852Z,3.05
2024-01-31T15:54:45.293Z,2.60
2024-01-31T15:57:11.711Z,2.72
2024-01-31T15:59:38.038Z,4.50
2024-01-31T16:02:04.491Z,3.65
2024-01-31T16:04:30.874Z,3.80
2024-01-31T16:06:58.204Z,3.20
2024-01-31T16:09:27.551Z,3.05
2024-01-31T16:11:54.029Z,3.38
2024-01-31T16:14:20.504Z,2.63
2024-01-31T16:16:46.852Z,3.22
2024-01-31T16:19:14.434Z,3.15
2024-01-31T16:21:46.507Z,3.20
2024-01-31T16:24:13.663Z,3.15
2024-01-31T16:26:43.256Z,2.88
2024-01-31T16:29:09.682Z,2.58
2024-01-31T16:31:39.657Z,3.05
2024-01-31T16:34:06.435Z,3.25
2024-01-31T16:36:32.798Z,2.85
2024-01-31T16:38:59.149Z,2.55
2024-01-31T16:41:26.164Z,3.15
2024-01-31T16:43:53.189Z,3.10
2024-01-31T16:46:20.761Z,3.03
2024-01-31T16:48:51.265Z,3.05
2024-01-31T16:53:45.161Z,3.80
2024-01-31T16:56:11.596Z,4.47
2024-01-31T16:58:37.939Z,4.05
2024-01-31T17:01:04.360Z,4.22
2024-01-31T17:03:30.765Z,4.10
2024-01-31T17:05:57.155Z,4.70
2024-01-31T17:08:25.283Z,3.97
2024-01-31T17:10:51.732Z,4.78
2024-01-31T17:13:19.972Z,5.13
2024-01-31T17:15:47.204Z,4.95
2024-01-31T17:18:21.209Z,4.60
2024-01-31T17:20:48.940Z,4.43
2024-01-31T17:23:16.209Z,4.32
2024-01-31T17:25:42.846Z,4.10
2024-01-31T17:28:09.479Z,4.30
2024-01-31T17:30:41.650Z,4.45
2024-01-31T17:33:09.500Z,4.60
2024-01-31T17:35:36.485Z,4.00
2024-01-31T17:38:02.986Z,4.88
2024-01-31T17:40:29.396Z,4.60
2024-01-31T17:42:55.808Z,4.15
2024-01-31T17:45:22.238Z,4.93
2024-01-31T17:47:48.650Z,4.80
2024-01-31T17:50:15.041Z,4.68
2024-01-31T17:52:42.991Z,4.40
2024-01-31T17:55:09.422Z,4.53
2024-01-31T17:57:35.944Z,4.28
2024-01-31T18:00:02.396Z,4.60
2024-01-31T18:02:28.765Z,4.93
2024-01-31T18:04:57.235Z,3.90
2024-01-31T18:07:23.810Z,4.03
2024-01-31T18:09:50.151Z,4.00
2024-01-31T18:12:21.869Z,5.10
2024-01-31T18:14:54.420Z,5.10
2024-01-31T18:17:20.836Z,4.55
2024-01-31T18:19:48.041Z,4.53
2024-01-31T18:22:17.853Z,4.50
2024-01-31T18:24:44.275Z,3.97
2024-01-31T18:27:11.039Z,4.15
2024-01-31T18:29:38.522Z,3.03
2024-01-31T18:32:06.229Z,3.30
2024-01-31T18:34:33.113Z,3.60
2024-01-31T18:37:00.242Z,4.03
2024-01-31T18:39:26.689Z,3.70
2024-01-31T18:41:53.197Z,4.10
2024-01-31T18:44:19.610Z,3.28
2024-01-31T18:46:45.934Z,3.83
2024-01-31T18:49:13.695Z,3.58
2024-01-31T18:51:40.186Z,3.47
2024-01-31T18:54:07.094Z,3.70
2024-01-31T18:56:34.917Z,4.15
2024-01-31T18:59:01.498Z,3.40
2024-01-31T19:01:27.873Z,3.80
2024-01-31T19:03:54.329Z,3.90
2024-01-31T19:06:20.847Z,3.70
2024-01-31T19:08:47.302Z,3.67
2024-01-31T19:11:21.828Z,4.43
2024-01-31T19:13:48.670Z,3.63
2024-01-31T19:16:15.080Z,3.78
2024-01-31T19:18:42.012Z,4.32
2024-01-31T19:21:08.909Z,4.38
2024-01-31T19:23:35.290Z,4.40
2024-01-31T19:26:01.723Z,4.05
2024-01-31T19:28:29.734Z,4.20
2024-01-31T19:30:56.074Z,3.90
2024-01-31T19:33:22.518Z,4.05
2024-01-31T19:35:49.810Z,4.65
2024-01-31T19:38:16.133Z,4.68
2024-01-31T19:40:42.485Z,5.05
2024-01-31T19:43:08.874Z,4.15
2024-01-31T19:45:35.225Z,4.78
2024-01-31T19:48:01.638Z,4.55
2024-01-31T19:50:28.048Z,4.53
2024-01-31T19:52:54.635Z,5.07
2024-01-31T19:55:20.991Z,4.82
2024-01-31T19:57:47.349Z,5.10
2024-01-31T20:00:15.303Z,4.53
2024-01-31T20:02:41.795Z,4.93
2024-01-31T20:05:08.486Z,5.90
2024-01-31T20:07:34.927Z,5.13
2024-01-31T20:10:01.459Z,4.95
2024-01-31T20:12:27.828Z,4.97
2024-01-31T20:14:54.360Z,4.88
2024-01-31T20:17:20.732Z,4.93
2024-01-31T20:19:48.145Z,4.35
2024-01-31T20:22:14.563Z,4.43
2024-01-31T20:24:40.887Z,4.78
2024-01-31T20:27:07.802Z,4.78
2024-01-31T20:29:34.335Z,4.25
2024-01-31T20:32:01.572Z,4.18
2024-01-31T20:34:30.886Z,4.03
2024-01-31T20:36:57.275Z,3.28
2024-01-31T20:39:23.626Z,3.70
2024-01-31T20:41:49.951Z,3.08
2024-01-31T20:44:16.264Z,3.40
2024-01-31T20:46:42.604Z,3.20
2024-01-31T20:49:09.008Z,3.20
2024-01-31T20:51:39.813Z,3.95
2024-01-31T20:56:32.470Z,3.22
2024-01-31T20:58:59.728Z,3.75
2024-01-31T21:01:26.359Z,3.45
2024-01-31T21:03:52.946Z,3.97
2024-01-31T21:06:19.461Z,3.60
2024-01-31T21:08:46.001Z,3.28
2024-01-31T21:11:12.325Z,3.67
2024-01-31T21:13:38.698Z,3.53
2024-01-31T21:16:06.193Z,3.75
2024-01-31T21:18:32.713Z,3.45
2024-01-31T21:20:59.349Z,3.05
2024-01-31T21:23:26.112Z,3.72
2024-01-31T21:25:52.652Z,3.50
2024-01-31T21:28:20.796Z,3.50
2024-01-31T21:30:53.241Z,3.50
2024-01-31T21:33:20.853Z,3.28
2024-01-31T21:35:48.093Z,3.90
2024-01-31T21:38:14.504Z,3.38
2024-01-31T21:40:40.780Z,3.63
2024-01-31T21:43:07.314Z,3.55
2024-01-31T21:45:33.664Z,4.28
2024-01-31T21:48:00.045Z,3.13
2024-01-31T21:50:26.618Z,3.72
2024-01-31T21:52:54.073Z,3.88
2024-01-31T21:55:21.237Z,3.92
2024-01-31T21:57:47.652Z,4.68
2024-01-31T22:00:14.300Z,4.07
2024-01-31T22:02:40.698Z,4.40
2024-01-31T22:05:07.312Z,4.63
2024-01-31T22:07:33.924Z,4.32
2024-01-31T22:10:00.288Z,4.82
2024-01-31T22:12:27.109Z,4.72
2024-01-31T22:14:53.606Z,5.28
2024-01-31T22:17:20.072Z,4.18
2024-01-31T22:19:46.507Z,5.57
2024-01-31T22:22:12.905Z,4.75
2024-01-31T22:24:39.328Z,5.28
2024-01-31T22:27:05.753Z,4.72
2024-01-31T22:29:32.323Z,5.28
2024-01-31T22:32:04.802Z,5.63
2024-01-31T22:34:33.086Z,5.93
2024-01-31T22:37:00.559Z,5.75
2024-01-31T22:39:26.860Z,6.13
2024-01-31T22:41:53.193Z,6.22
2024-01-31T22:44:19.593Z,5.88
2024-01-31T22:46:46.017Z,6.20
2024-01-31T22:49:13.742Z,6.45
2024-01-31T22:51:40.798Z,7.20
2024-01-31T22:54:07.278Z,7.10
2024-01-31T22:56:34.636Z,6.90
2024-01-31T22:59:01.284Z,8.27
2024-01-31T23:01:28.093Z,7.75
2024-01-31T23:03:54.546Z,8.88
2024-01-31T23:06:21.098Z,8.93
2024-01-31T23:08:48.367Z,8.38
2024-01-31T23:11:14.860Z,8.43
2024-01-31T23:13:41.236Z,8.85
2024-01-31T23:16:07.565Z,9.80
2024-01-31T23:18:34.125Z,8.40
2024-01-31T23:21:01.762Z,7.95
2024-01-31T23:23:28.236Z,8.52
2024-01-31T23:25:54.677Z,8.90
2024-01-31T23:28:21.136Z,8.88
2024-01-31T23:30:47.637Z,9.23
2024-01-31T23:33:14.122Z,8.95
2024-01-31T23:35:40.678Z,9.45
2024-01-31T23:38:08.882Z,9.68
2024-01-31T23:40:35.399Z,9.68
2024-01-31T23:43:01.754Z,9.63
2024-01-31T23:45:28.096Z,9.93
2024-01-31T23:47:54.504Z,9.13
2024-01-31T23:50:21.914Z,10.00
2024-01-31T23:52:48.224Z,9.57
2024-01-31T23:55:14.884Z,9.68
2024-01-31T23:57:42.136Z,9.85
